AAL2293 KPWM-KPHL
Flight info
| Callsign | AAL2293 |
|---|---|
| Flight time | 1h 4m |
| Altitude | 38000 |
| Route | CCC MANTA Q439 BRIGS JIIMS4 |
| Aircraft | A319/M-SDE3FGHIRWY/LB1 |
Departure
| Time | 2026-04-25 00:02 |
|---|---|
| Airport | Portland International Jetport (KPWM) |
Arrival
| Time | 2026-04-25 01:07 |
|---|---|
| Airport | Philadelphia International Airport (KPHL) |
| Time | Latitude | Longitude | Altitude | Speed | Heading |
|---|---|---|---|---|---|
| 2026-04-24 23:39 | 43.64733 | -70.31283 | 71 ft | 0 kts | 64° |
| 2026-04-24 23:56 | 43.64730 | -70.31292 | 70 ft | 4 kts | 63° |
| 2026-04-24 23:56 | 43.64716 | -70.31324 | 71 ft | 4 kts | 53° |
| 2026-04-24 23:56 | 43.64698 | -70.31352 | 75 ft | 4 kts | 46° |
| 2026-04-24 23:56 | 43.64691 | -70.31364 | 76 ft | 0 kts | 46° |
| 2026-04-24 23:59 | 43.64691 | -70.31362 | 76 ft | 1 kts | 52° |
| 2026-04-24 23:59 | 43.64687 | -70.31355 | 82 ft | 2 kts | 117° |
| 2026-04-24 23:59 | 43.64652 | -70.31335 | 83 ft | 10 kts | 176° |
| 2026-04-24 23:59 | 43.64618 | -70.31432 | 80 ft | 15 kts | 275° |
| 2026-04-25 00:00 | 43.64629 | -70.31599 | 86 ft | 20 kts | 276° |
| 2026-04-25 00:00 | 43.64644 | -70.31810 | 89 ft | 24 kts | 275° |
| 2026-04-25 00:00 | 43.64660 | -70.32058 | 91 ft | 23 kts | 275° |
| 2026-04-25 00:00 | 43.64675 | -70.32283 | 98 ft | 24 kts | 275° |
| 2026-04-25 00:01 | 43.64686 | -70.32448 | 96 ft | 14 kts | 275° |
| 2026-04-25 00:01 | 43.64691 | -70.32541 | 98 ft | 14 kts | 268° |
| 2026-04-25 00:01 | 43.64613 | -70.32585 | 98 ft | 15 kts | 168° |
| 2026-04-25 00:01 | 43.64580 | -70.32516 | 98 ft | 0 kts | 93° |
| 2026-04-25 00:02 | 43.64570 | -70.32358 | 96 ft | 49 kts | 95° |
| 2026-04-25 00:02 | 43.64488 | -70.31156 | 71 ft | 139 kts | 95° |
| 2026-04-25 00:02 | 43.64366 | -70.29725 | 598 ft | 148 kts | 99° |
| 2026-04-25 00:02 | 43.64269 | -70.28800 | 1240 ft | 140 kts | 94° |
| 2026-04-25 00:03 | 43.64181 | -70.27469 | 1972 ft | 143 kts | 91° |
| 2026-04-25 00:03 | 43.64080 | -70.25999 | 2411 ft | 164 kts | 92° |
| 2026-04-25 00:03 | 43.63891 | -70.24326 | 2782 ft | 191 kts | 104° |
| 2026-04-25 00:03 | 43.62990 | -70.22830 | 3128 ft | 229 kts | 148° |
| 2026-04-25 00:04 | 43.61339 | -70.22426 | 3636 ft | 261 kts | 188° |
| 2026-04-25 00:04 | 43.59627 | -70.23415 | 4476 ft | 273 kts | 214° |
| 2026-04-25 00:04 | 43.58098 | -70.25002 | 5547 ft | 276 kts | 223° |
| 2026-04-25 00:04 | 43.56152 | -70.27340 | 7012 ft | 279 kts | 226° |
| 2026-04-25 00:05 | 43.55171 | -70.28512 | 7684 ft | 282 kts | 225° |
| 2026-04-25 00:05 | 43.53648 | -70.30261 | 8675 ft | 288 kts | 224° |
| 2026-04-25 00:05 | 43.52063 | -70.31992 | 9665 ft | 294 kts | 223° |
| 2026-04-25 00:05 | 43.50411 | -70.33729 | 10345 ft | 308 kts | 222° |
| 2026-04-25 00:06 | 43.48627 | -70.35567 | 10705 ft | 331 kts | 221° |
| 2026-04-25 00:06 | 43.46746 | -70.37470 | 11328 ft | 340 kts | 221° |
| 2026-04-25 00:06 | 43.44811 | -70.39403 | 12068 ft | 346 kts | 221° |
| 2026-04-25 00:06 | 43.42844 | -70.41360 | 12802 ft | 352 kts | 222° |
| 2026-04-25 00:07 | 43.40866 | -70.43332 | 13518 ft | 358 kts | 222° |
| 2026-04-25 00:07 | 43.38835 | -70.45359 | 14179 ft | 363 kts | 222° |
| 2026-04-25 00:07 | 43.36777 | -70.47416 | 14844 ft | 368 kts | 223° |
| 2026-04-25 00:07 | 43.34697 | -70.49496 | 15537 ft | 371 kts | 223° |
| 2026-04-25 00:08 | 43.32596 | -70.51592 | 16238 ft | 375 kts | 223° |
| 2026-04-25 00:08 | 43.30472 | -70.53709 | 16935 ft | 378 kts | 224° |
| 2026-04-25 00:08 | 43.28338 | -70.55840 | 17608 ft | 381 kts | 224° |
| 2026-04-25 00:08 | 43.26184 | -70.57989 | 18304 ft | 385 kts | 224° |
| 2026-04-25 00:09 | 43.24009 | -70.60153 | 18906 ft | 388 kts | 224° |
| 2026-04-25 00:09 | 43.21809 | -70.62341 | 19503 ft | 392 kts | 224° |
| 2026-04-25 00:09 | 43.19593 | -70.64546 | 20099 ft | 396 kts | 224° |
| 2026-04-25 00:09 | 43.17381 | -70.66746 | 20691 ft | 399 kts | 224° |
| 2026-04-25 00:10 | 43.15124 | -70.68989 | 21281 ft | 403 kts | 224° |
| 2026-04-25 00:10 | 43.12850 | -70.71248 | 21877 ft | 406 kts | 225° |
| 2026-04-25 00:10 | 43.10554 | -70.73526 | 22455 ft | 409 kts | 225° |
| 2026-04-25 00:10 | 43.08235 | -70.75822 | 23036 ft | 413 kts | 225° |
| 2026-04-25 00:11 | 43.05898 | -70.78131 | 23609 ft | 416 kts | 225° |
| 2026-04-25 00:11 | 43.03542 | -70.80459 | 24074 ft | 420 kts | 225° |
| 2026-04-25 00:11 | 43.01163 | -70.82806 | 24543 ft | 423 kts | 225° |
| 2026-04-25 00:11 | 42.98769 | -70.85164 | 25007 ft | 426 kts | 225° |
| 2026-04-25 00:12 | 42.96363 | -70.87531 | 25462 ft | 428 kts | 225° |
| 2026-04-25 00:12 | 42.93942 | -70.89910 | 25885 ft | 430 kts | 225° |
| 2026-04-25 00:12 | 42.91504 | -70.92302 | 26325 ft | 433 kts | 225° |
| 2026-04-25 00:12 | 42.89049 | -70.94711 | 26767 ft | 436 kts | 225° |
| 2026-04-25 00:13 | 42.86579 | -70.97136 | 27209 ft | 439 kts | 225° |
| 2026-04-25 00:13 | 42.84096 | -70.99574 | 27642 ft | 441 kts | 225° |
| 2026-04-25 00:13 | 42.81601 | -71.02022 | 28060 ft | 444 kts | 225° |
| 2026-04-25 00:13 | 42.79083 | -71.04491 | 28512 ft | 446 kts | 225° |
| 2026-04-25 00:14 | 42.76556 | -71.06964 | 28939 ft | 449 kts | 225° |
| 2026-04-25 00:14 | 42.74008 | -71.09451 | 29358 ft | 452 kts | 225° |
| 2026-04-25 00:14 | 42.71442 | -71.11949 | 29763 ft | 455 kts | 225° |
| 2026-04-25 00:14 | 42.68851 | -71.14464 | 30156 ft | 458 kts | 225° |
| 2026-04-25 00:15 | 42.66250 | -71.16991 | 30484 ft | 461 kts | 225° |
| 2026-04-25 00:15 | 42.63636 | -71.19531 | 30791 ft | 463 kts | 224° |
| 2026-04-25 00:15 | 42.61010 | -71.22080 | 31109 ft | 466 kts | 224° |
| 2026-04-25 00:15 | 42.58365 | -71.24646 | 31412 ft | 468 kts | 224° |
| 2026-04-25 00:16 | 42.55708 | -71.27224 | 31704 ft | 471 kts | 224° |
| 2026-04-25 00:16 | 42.53035 | -71.29814 | 32015 ft | 473 kts | 224° |
| 2026-04-25 00:16 | 42.50351 | -71.32410 | 32311 ft | 476 kts | 224° |
| 2026-04-25 00:16 | 42.47656 | -71.35011 | 32699 ft | 475 kts | 224° |
| 2026-04-25 00:17 | 42.44960 | -71.37607 | 33134 ft | 474 kts | 224° |
| 2026-04-25 00:17 | 42.42272 | -71.40192 | 33558 ft | 474 kts | 224° |
| 2026-04-25 00:17 | 42.39625 | -71.42737 | 33965 ft | 473 kts | 224° |
| 2026-04-25 00:17 | 42.36939 | -71.45316 | 34331 ft | 473 kts | 224° |
| 2026-04-25 00:18 | 42.34258 | -71.47889 | 34712 ft | 472 kts | 224° |
| 2026-04-25 00:18 | 42.31581 | -71.50457 | 35085 ft | 471 kts | 224° |
| 2026-04-25 00:18 | 42.28914 | -71.53012 | 35455 ft | 469 kts | 223° |
| 2026-04-25 00:18 | 42.26260 | -71.55549 | 35845 ft | 467 kts | 223° |
| 2026-04-25 00:19 | 42.23610 | -71.58083 | 36169 ft | 466 kts | 223° |
| 2026-04-25 00:19 | 42.20966 | -71.60615 | 36488 ft | 466 kts | 223° |
| 2026-04-25 00:19 | 42.18325 | -71.63143 | 36834 ft | 465 kts | 222° |
| 2026-04-25 00:19 | 42.15687 | -71.65662 | 37178 ft | 464 kts | 222° |
| 2026-04-25 00:20 | 42.13052 | -71.68174 | 37508 ft | 463 kts | 222° |
| 2026-04-25 00:20 | 42.10427 | -71.70672 | 37872 ft | 461 kts | 221° |
| 2026-04-25 00:20 | 42.07808 | -71.73160 | 37976 ft | 459 kts | 221° |
| 2026-04-25 00:20 | 42.05201 | -71.75632 | 37991 ft | 458 kts | 221° |
| 2026-04-25 00:21 | 42.00008 | -71.80555 | 37988 ft | 456 kts | 221° |
| 2026-04-25 00:21 | 41.94819 | -71.85469 | 37984 ft | 455 kts | 221° |
| 2026-04-25 00:22 | 41.89680 | -71.90329 | 37984 ft | 455 kts | 221° |
| 2026-04-25 00:22 | 41.84481 | -71.95221 | 37994 ft | 458 kts | 221° |
| 2026-04-25 00:23 | 41.79262 | -72.00123 | 37989 ft | 458 kts | 221° |
| 2026-04-25 00:23 | 41.74048 | -72.05025 | 37997 ft | 458 kts | 221° |
| 2026-04-25 00:24 | 41.68823 | -72.09918 | 38002 ft | 458 kts | 221° |
| 2026-04-25 00:24 | 41.63599 | -72.14795 | 38003 ft | 458 kts | 221° |
| 2026-04-25 00:25 | 41.58366 | -72.19672 | 37971 ft | 458 kts | 222° |
| 2026-04-25 00:25 | 41.53143 | -72.24544 | 37976 ft | 458 kts | 222° |
| 2026-04-25 00:26 | 41.47910 | -72.29421 | 37964 ft | 459 kts | 222° |
| 2026-04-25 00:26 | 41.42688 | -72.34260 | 37982 ft | 461 kts | 222° |
| 2026-04-25 00:27 | 41.37383 | -72.39161 | 37989 ft | 461 kts | 222° |
| 2026-04-25 00:27 | 41.32106 | -72.44033 | 37996 ft | 462 kts | 222° |
| 2026-04-25 00:28 | 41.26825 | -72.48899 | 37997 ft | 462 kts | 222° |
| 2026-04-25 00:28 | 41.21575 | -72.53726 | 37993 ft | 462 kts | 223° |
| 2026-04-25 00:29 | 41.16276 | -72.58573 | 37989 ft | 462 kts | 223° |
| 2026-04-25 00:29 | 41.10991 | -72.63423 | 37951 ft | 462 kts | 224° |
| 2026-04-25 00:30 | 41.05695 | -72.68280 | 37963 ft | 463 kts | 224° |
| 2026-04-25 00:30 | 41.00386 | -72.73130 | 37979 ft | 463 kts | 224° |
| 2026-04-25 00:31 | 40.95072 | -72.77963 | 37981 ft | 464 kts | 224° |
| 2026-04-25 00:31 | 40.89519 | -72.82431 | 37980 ft | 471 kts | 218° |
| 2026-04-25 00:32 | 40.83785 | -72.86632 | 37954 ft | 472 kts | 218° |
| 2026-04-25 00:32 | 40.80904 | -72.88742 | 37540 ft | 473 kts | 218° |
| 2026-04-25 00:32 | 40.78032 | -72.90841 | 37124 ft | 473 kts | 219° |
| 2026-04-25 00:33 | 40.75146 | -72.92947 | 36727 ft | 474 kts | 219° |
| 2026-04-25 00:33 | 40.72260 | -72.95055 | 36341 ft | 475 kts | 219° |
| 2026-04-25 00:33 | 40.69364 | -72.97174 | 35886 ft | 478 kts | 219° |
| 2026-04-25 00:33 | 40.66451 | -72.99311 | 35513 ft | 480 kts | 220° |
| 2026-04-25 00:34 | 40.63533 | -73.01448 | 35144 ft | 479 kts | 220° |
| 2026-04-25 00:34 | 40.60621 | -73.03570 | 34781 ft | 478 kts | 220° |
| 2026-04-25 00:34 | 40.57716 | -73.05677 | 34428 ft | 475 kts | 220° |
| 2026-04-25 00:34 | 40.54824 | -73.07769 | 34075 ft | 473 kts | 220° |
| 2026-04-25 00:35 | 40.51946 | -73.09851 | 33656 ft | 471 kts | 220° |
| 2026-04-25 00:35 | 40.49092 | -73.11917 | 33249 ft | 467 kts | 220° |
| 2026-04-25 00:35 | 40.46287 | -73.13944 | 32859 ft | 464 kts | 220° |
| 2026-04-25 00:35 | 40.43471 | -73.15980 | 32467 ft | 460 kts | 220° |
| 2026-04-25 00:36 | 40.40638 | -73.18029 | 32076 ft | 457 kts | 220° |
| 2026-04-25 00:36 | 40.37899 | -73.20013 | 31701 ft | 454 kts | 220° |
| 2026-04-25 00:36 | 40.35142 | -73.22010 | 31329 ft | 451 kts | 219° |
| 2026-04-25 00:36 | 40.32404 | -73.23990 | 30931 ft | 448 kts | 219° |
| 2026-04-25 00:37 | 40.29679 | -73.25955 | 30582 ft | 445 kts | 219° |
| 2026-04-25 00:37 | 40.26976 | -73.27903 | 30345 ft | 443 kts | 219° |
| 2026-04-25 00:37 | 40.24281 | -73.29844 | 30108 ft | 441 kts | 219° |
| 2026-04-25 00:37 | 40.21605 | -73.31766 | 29782 ft | 436 kts | 218° |
| 2026-04-25 00:38 | 40.18954 | -73.33668 | 29311 ft | 433 kts | 218° |
| 2026-04-25 00:38 | 40.16317 | -73.35554 | 28844 ft | 430 kts | 218° |
| 2026-04-25 00:38 | 40.13703 | -73.37422 | 28368 ft | 426 kts | 218° |
| 2026-04-25 00:38 | 40.11113 | -73.39276 | 27955 ft | 422 kts | 218° |
| 2026-04-25 00:39 | 40.08548 | -73.41110 | 27525 ft | 419 kts | 218° |
| 2026-04-25 00:39 | 40.06003 | -73.42931 | 27096 ft | 415 kts | 218° |
| 2026-04-25 00:39 | 40.03478 | -73.44738 | 26677 ft | 412 kts | 218° |
| 2026-04-25 00:39 | 40.00972 | -73.46533 | 26266 ft | 410 kts | 217° |
| 2026-04-25 00:40 | 39.98480 | -73.48313 | 25853 ft | 407 kts | 217° |
| 2026-04-25 00:40 | 39.96002 | -73.50077 | 25415 ft | 405 kts | 217° |
| 2026-04-25 00:40 | 39.93536 | -73.51831 | 24972 ft | 403 kts | 217° |
| 2026-04-25 00:40 | 39.91166 | -73.53700 | 24569 ft | 392 kts | 225° |
| 2026-04-25 00:41 | 39.89143 | -73.55983 | 24171 ft | 379 kts | 234° |
| 2026-04-25 00:41 | 39.87459 | -73.58550 | 23781 ft | 370 kts | 239° |
| 2026-04-25 00:41 | 39.85839 | -73.61136 | 23346 ft | 367 kts | 239° |
| 2026-04-25 00:41 | 39.84225 | -73.63697 | 22925 ft | 362 kts | 239° |
| 2026-04-25 00:42 | 39.82634 | -73.66212 | 22475 ft | 358 kts | 239° |
| 2026-04-25 00:42 | 39.81067 | -73.68696 | 22064 ft | 353 kts | 239° |
| 2026-04-25 00:42 | 39.79515 | -73.71155 | 21640 ft | 349 kts | 238° |
| 2026-04-25 00:42 | 39.78002 | -73.73552 | 21227 ft | 346 kts | 238° |
| 2026-04-25 00:43 | 39.76465 | -73.75984 | 20806 ft | 342 kts | 238° |
| 2026-04-25 00:43 | 39.74977 | -73.78331 | 20387 ft | 339 kts | 238° |
| 2026-04-25 00:43 | 39.73482 | -73.80687 | 19977 ft | 336 kts | 238° |
| 2026-04-25 00:43 | 39.71999 | -73.83026 | 19563 ft | 334 kts | 238° |
| 2026-04-25 00:44 | 39.70529 | -73.85344 | 19155 ft | 331 kts | 238° |
| 2026-04-25 00:44 | 39.69069 | -73.87645 | 18745 ft | 329 kts | 238° |
| 2026-04-25 00:44 | 39.67618 | -73.89934 | 18340 ft | 327 kts | 237° |
| 2026-04-25 00:44 | 39.66175 | -73.92206 | 17895 ft | 325 kts | 237° |
| 2026-04-25 00:45 | 39.64740 | -73.94458 | 17504 ft | 321 kts | 237° |
| 2026-04-25 00:45 | 39.63326 | -73.96673 | 17166 ft | 316 kts | 237° |
| 2026-04-25 00:45 | 39.61930 | -73.98858 | 16782 ft | 313 kts | 238° |
| 2026-04-25 00:45 | 39.60546 | -74.01029 | 16385 ft | 311 kts | 237° |
| 2026-04-25 00:46 | 39.59172 | -74.03188 | 15979 ft | 310 kts | 237° |
| 2026-04-25 00:46 | 39.57805 | -74.05334 | 15572 ft | 309 kts | 237° |
| 2026-04-25 00:46 | 39.55081 | -74.09601 | 14803 ft | 306 kts | 237° |
| 2026-04-25 00:47 | 39.53791 | -74.11770 | 14423 ft | 300 kts | 245° |
| 2026-04-25 00:47 | 39.52905 | -74.14163 | 14063 ft | 290 kts | 258° |
| 2026-04-25 00:47 | 39.52486 | -74.16692 | 13862 ft | 288 kts | 270° |
| 2026-04-25 00:47 | 39.52474 | -74.19270 | 13680 ft | 287 kts | 277° |
| 2026-04-25 00:48 | 39.52535 | -74.21858 | 13484 ft | 287 kts | 276° |
| 2026-04-25 00:48 | 39.52585 | -74.24439 | 13298 ft | 286 kts | 276° |
| 2026-04-25 00:48 | 39.52633 | -74.27018 | 13113 ft | 286 kts | 276° |
| 2026-04-25 00:48 | 39.52680 | -74.29588 | 12930 ft | 285 kts | 276° |
| 2026-04-25 00:49 | 39.52725 | -74.32148 | 12747 ft | 284 kts | 276° |
| 2026-04-25 00:49 | 39.52754 | -74.33839 | 12627 ft | 283 kts | 276° |
| 2026-04-25 00:49 | 39.52797 | -74.36388 | 12434 ft | 283 kts | 276° |
| 2026-04-25 00:49 | 39.52840 | -74.38940 | 12261 ft | 283 kts | 276° |
| 2026-04-25 00:50 | 39.52884 | -74.41484 | 12080 ft | 283 kts | 276° |
| 2026-04-25 00:50 | 39.52929 | -74.44028 | 11901 ft | 282 kts | 276° |
| 2026-04-25 00:50 | 39.52973 | -74.46561 | 11720 ft | 281 kts | 276° |
| 2026-04-25 00:50 | 39.53019 | -74.49087 | 11541 ft | 280 kts | 276° |
| 2026-04-25 00:51 | 39.53063 | -74.51602 | 11363 ft | 279 kts | 276° |
| 2026-04-25 00:51 | 39.53104 | -74.54110 | 11184 ft | 278 kts | 276° |
| 2026-04-25 00:51 | 39.53143 | -74.56612 | 11004 ft | 277 kts | 276° |
| 2026-04-25 00:51 | 39.53181 | -74.59106 | 10830 ft | 276 kts | 275° |
| 2026-04-25 00:52 | 39.53222 | -74.61590 | 10653 ft | 275 kts | 276° |
| 2026-04-25 00:52 | 39.53264 | -74.64067 | 10477 ft | 275 kts | 276° |
| 2026-04-25 00:52 | 39.53304 | -74.66508 | 10301 ft | 274 kts | 275° |
| 2026-04-25 00:52 | 39.53341 | -74.68954 | 10087 ft | 269 kts | 276° |
| 2026-04-25 00:53 | 39.53375 | -74.71344 | 9929 ft | 264 kts | 275° |
| 2026-04-25 00:53 | 39.53410 | -74.73718 | 9777 ft | 263 kts | 276° |
| 2026-04-25 00:53 | 39.53447 | -74.76084 | 9604 ft | 262 kts | 276° |
| 2026-04-25 00:53 | 39.53486 | -74.78448 | 9431 ft | 262 kts | 275° |
| 2026-04-25 00:54 | 39.53525 | -74.80803 | 9259 ft | 261 kts | 275° |
| 2026-04-25 00:54 | 39.53563 | -74.83156 | 9093 ft | 261 kts | 275° |
| 2026-04-25 00:54 | 39.53601 | -74.85501 | 8925 ft | 260 kts | 275° |
| 2026-04-25 00:54 | 39.53639 | -74.87840 | 8761 ft | 260 kts | 275° |
| 2026-04-25 00:55 | 39.53674 | -74.90175 | 8593 ft | 259 kts | 275° |
| 2026-04-25 00:55 | 39.53717 | -74.93264 | 8371 ft | 258 kts | 275° |
| 2026-04-25 00:55 | 39.53738 | -74.94836 | 8260 ft | 258 kts | 275° |
| 2026-04-25 00:55 | 39.53812 | -74.97152 | 8090 ft | 256 kts | 280° |
| 2026-04-25 00:56 | 39.54070 | -74.99432 | 7926 ft | 256 kts | 282° |
| 2026-04-25 00:56 | 39.54329 | -75.01708 | 7761 ft | 255 kts | 281° |
| 2026-04-25 00:56 | 39.54584 | -75.03983 | 7599 ft | 255 kts | 281° |
| 2026-04-25 00:56 | 39.54838 | -75.06259 | 7438 ft | 255 kts | 281° |
| 2026-04-25 00:57 | 39.55092 | -75.08535 | 7262 ft | 256 kts | 281° |
| 2026-04-25 00:57 | 39.55344 | -75.10819 | 7100 ft | 256 kts | 281° |
| 2026-04-25 00:57 | 39.55595 | -75.13101 | 6939 ft | 255 kts | 281° |
| 2026-04-25 00:57 | 39.55841 | -75.15353 | 6776 ft | 255 kts | 281° |
| 2026-04-25 00:58 | 39.56091 | -75.17633 | 6613 ft | 255 kts | 281° |
| 2026-04-25 00:58 | 39.56341 | -75.19915 | 6450 ft | 255 kts | 281° |
| 2026-04-25 00:58 | 39.56590 | -75.22190 | 6283 ft | 255 kts | 281° |
| 2026-04-25 00:58 | 39.56840 | -75.24468 | 6109 ft | 255 kts | 280° |
| 2026-04-25 00:59 | 39.57259 | -75.26687 | 5953 ft | 253 kts | 292° |
| 2026-04-25 00:59 | 39.57988 | -75.28757 | 5884 ft | 253 kts | 296° |
| 2026-04-25 00:59 | 39.58727 | -75.30829 | 5795 ft | 253 kts | 295° |
| 2026-04-25 00:59 | 39.59460 | -75.32901 | 5706 ft | 253 kts | 295° |
| 2026-04-25 01:00 | 39.60192 | -75.34979 | 5615 ft | 254 kts | 295° |
| 2026-04-25 01:00 | 39.60924 | -75.37065 | 5524 ft | 254 kts | 295° |
| 2026-04-25 01:00 | 39.61757 | -75.39075 | 5412 ft | 254 kts | 307° |
| 2026-04-25 01:00 | 39.63116 | -75.40528 | 5292 ft | 256 kts | 332° |
| 2026-04-25 01:01 | 39.64796 | -75.41275 | 5090 ft | 254 kts | 341° |
| 2026-04-25 01:01 | 39.66463 | -75.41900 | 4795 ft | 252 kts | 341° |
| 2026-04-25 01:01 | 39.68169 | -75.42528 | 4463 ft | 251 kts | 341° |
| 2026-04-25 01:01 | 39.69848 | -75.43147 | 4143 ft | 251 kts | 341° |
| 2026-04-25 01:02 | 39.71516 | -75.43760 | 3925 ft | 245 kts | 342° |
| 2026-04-25 01:02 | 39.73117 | -75.44350 | 3854 ft | 233 kts | 341° |
| 2026-04-25 01:02 | 39.74641 | -75.44917 | 3762 ft | 222 kts | 341° |
| 2026-04-25 01:02 | 39.76095 | -75.45457 | 3661 ft | 213 kts | 342° |
| 2026-04-25 01:03 | 39.77551 | -75.46005 | 3568 ft | 221 kts | 342° |
| 2026-04-25 01:03 | 39.79060 | -75.46286 | 3468 ft | 224 kts | 1° |
| 2026-04-25 01:03 | 39.80580 | -75.45871 | 3377 ft | 224 kts | 22° |
| 2026-04-25 01:03 | 39.81875 | -75.44822 | 3190 ft | 219 kts | 42° |
| 2026-04-25 01:04 | 39.82825 | -75.43238 | 2652 ft | 226 kts | 65° |
| 2026-04-25 01:04 | 39.83314 | -75.41290 | 2223 ft | 227 kts | 77° |
| 2026-04-25 01:04 | 39.83706 | -75.39345 | 1894 ft | 216 kts | 77° |
| 2026-04-25 01:04 | 39.84078 | -75.37503 | 1616 ft | 205 kts | 78° |
| 2026-04-25 01:05 | 39.84429 | -75.35759 | 1349 ft | 195 kts | 81° |
| 2026-04-25 01:05 | 39.84762 | -75.34107 | 1105 ft | 182 kts | 80° |
| 2026-04-25 01:05 | 39.85068 | -75.32585 | 861 ft | 164 kts | 79° |
| 2026-04-25 01:05 | 39.85335 | -75.31262 | 657 ft | 140 kts | 80° |
| 2026-04-25 01:06 | 39.85572 | -75.30065 | 443 ft | 134 kts | 79° |
| 2026-04-25 01:06 | 39.85809 | -75.28917 | 299 ft | 133 kts | 82° |
| 2026-04-25 01:06 | 39.86039 | -75.27769 | 143 ft | 131 kts | 82° |
| 2026-04-25 01:06 | 39.86257 | -75.26660 | 28 ft | 119 kts | 81° |
| 2026-04-25 01:07 | 39.86425 | -75.25792 | 30 ft | 75 kts | 75° |
| 2026-04-25 01:07 | 39.86520 | -75.25370 | 26 ft | 31 kts | 65° |
| 2026-04-25 01:07 | 39.86631 | -75.25165 | 28 ft | 28 kts | 49° |
| 2026-04-25 01:07 | 39.86697 | -75.25003 | 26 ft | 18 kts | 71° |
| 2026-04-25 01:08 | 39.86810 | -75.24942 | 26 ft | 20 kts | 21° |
| 2026-04-25 01:08 | 39.86908 | -75.24808 | 27 ft | 17 kts | 69° |
| 2026-04-25 01:08 | 39.87006 | -75.24771 | 29 ft | 19 kts | 339° |
| 2026-04-25 01:08 | 39.87129 | -75.24805 | 27 ft | 20 kts | 45° |
| 2026-04-25 01:09 | 39.87170 | -75.24625 | 26 ft | 22 kts | 75° |
| 2026-04-25 01:09 | 39.87212 | -75.24414 | 26 ft | 26 kts | 76° |
| 2026-04-25 01:09 | 39.87253 | -75.24208 | 26 ft | 23 kts | 76° |
| 2026-04-25 01:09 | 39.87295 | -75.24002 | 27 ft | 21 kts | 75° |
| 2026-04-25 01:10 | 39.87349 | -75.23878 | 26 ft | 17 kts | 2° |
| 2026-04-25 01:10 | 39.87446 | -75.23910 | 26 ft | 11 kts | 340° |
| 2026-04-25 01:10 | 39.87519 | -75.23969 | 26 ft | 14 kts | 312° |
| 2026-04-25 01:10 | 39.87559 | -75.24065 | 26 ft | 8 kts | 251° |
| 2026-04-25 01:11 | 39.87541 | -75.24094 | 26 ft | 1 kts | 236° |
| 2026-04-25 01:11 | 39.87537 | -75.24102 | 26 ft | 1 kts | 236° |
| 2026-04-25 01:11 | 39.87536 | -75.24104 | 26 ft | 0 kts | 236° |